sensor_id;sensor_type;location;lat;lon;timestamp;P1;durP1;ratioP1;P2;durP2;ratioP2
52210;SDS011;38179;52.756;6.906;2023-10-09T00:01:52;15.03;;;13.50;;
52210;SDS011;38179;52.756;6.906;2023-10-09T00:04:18;28.00;;;14.20;;
52210;SDS011;38179;52.756;6.906;2023-10-09T00:06:45;18.90;;;15.02;;
52210;SDS011;38179;52.756;6.906;2023-10-09T00:09:11;17.15;;;15.45;;
52210;SDS011;38179;52.756;6.906;2023-10-09T00:11:49;17.67;;;14.77;;
52210;SDS011;38179;52.756;6.906;2023-10-09T00:14:31;17.77;;;15.95;;
52210;SDS011;38179;52.756;6.906;2023-10-09T00:17:04;17.20;;;15.45;;
52210;SDS011;38179;52.756;6.906;2023-10-09T00:19:35;18.27;;;14.95;;
52210;SDS011;38179;52.756;6.906;2023-10-09T00:22:02;21.42;;;16.45;;
52210;SDS011;38179;52.756;6.906;2023-10-09T00:24:42;17.65;;;15.95;;
52210;SDS011;38179;52.756;6.906;2023-10-09T00:27:12;17.33;;;15.52;;
52210;SDS011;38179;52.756;6.906;2023-10-09T00:29:40;22.75;;;16.42;;
52210;SDS011;38179;52.756;6.906;2023-10-09T00:32:11;18.00;;;16.20;;
52210;SDS011;38179;52.756;6.906;2023-10-09T00:34:55;20.13;;;17.20;;
52210;SDS011;38179;52.756;6.906;2023-10-09T00:37:24;21.30;;;17.38;;
52210;SDS011;38179;52.756;6.906;2023-10-09T00:39:59;23.90;;;18.27;;
52210;SDS011;38179;52.756;6.906;2023-10-09T00:42:25;21.80;;;17.95;;
52210;SDS011;38179;52.756;6.906;2023-10-09T00:45:00;20.27;;;18.17;;
52210;SDS011;38179;52.756;6.906;2023-10-09T00:47:30;21.83;;;18.65;;
52210;SDS011;38179;52.756;6.906;2023-10-09T00:52:52;26.77;;;19.63;;
52210;SDS011;38179;52.756;6.906;2023-10-09T00:55:26;23.98;;;19.45;;
52210;SDS011;38179;52.756;6.906;2023-10-09T00:58:03;25.63;;;20.80;;
52210;SDS011;38179;52.756;6.906;2023-10-09T01:00:37;26.52;;;22.00;;
52210;SDS011;38179;52.756;6.906;2023-10-09T01:03:13;22.60;;;20.05;;
52210;SDS011;38179;52.756;6.906;2023-10-09T01:08:24;27.52;;;21.55;;
52210;SDS011;38179;52.756;6.906;2023-10-09T01:11:15;28.98;;;22.38;;
52210;SDS011;38179;52.756;6.906;2023-10-09T01:13:54;25.15;;;21.25;;
52210;SDS011;38179;52.756;6.906;2023-10-09T01:16:36;29.05;;;21.92;;
52210;SDS011;38179;52.756;6.906;2023-10-09T01:19:04;31.63;;;23.38;;
52210;SDS011;38179;52.756;6.906;2023-10-09T01:21:38;26.10;;;23.25;;
52210;SDS011;38179;52.756;6.906;2023-10-09T01:24:07;32.75;;;22.80;;
52210;SDS011;38179;52.756;6.906;2023-10-09T01:26:34;29.83;;;22.52;;
52210;SDS011;38179;52.756;6.906;2023-10-09T01:29:12;33.38;;;23.10;;
52210;SDS011;38179;52.756;6.906;2023-10-09T01:31:44;29.85;;;21.88;;
52210;SDS011;38179;52.756;6.906;2023-10-09T01:34:31;27.95;;;23.13;;
52210;SDS011;38179;52.756;6.906;2023-10-09T01:37:01;29.67;;;23.48;;
52210;SDS011;38179;52.756;6.906;2023-10-09T01:41:56;32.13;;;21.80;;
52210;SDS011;38179;52.756;6.906;2023-10-09T01:44:31;28.60;;;22.73;;
52210;SDS011;38179;52.756;6.906;2023-10-09T01:47:01;33.97;;;23.48;;
52210;SDS011;38179;52.756;6.906;2023-10-09T01:49:33;30.40;;;23.27;;
52210;SDS011;38179;52.756;6.906;2023-10-09T01:52:07;29.25;;;22.95;;
52210;SDS011;38179;52.756;6.906;2023-10-09T01:54:35;31.42;;;24.75;;
52210;SDS011;38179;52.756;6.906;2023-10-09T01:57:02;33.58;;;24.20;;
52210;SDS011;38179;52.756;6.906;2023-10-09T02:02:06;29.60;;;23.38;;
52210;SDS011;38179;52.756;6.906;2023-10-09T02:04:58;33.72;;;24.85;;
52210;SDS011;38179;52.756;6.906;2023-10-09T02:07:35;30.08;;;24.00;;
52210;SDS011;38179;52.756;6.906;2023-10-09T02:10:13;31.45;;;24.98;;
52210;SDS011;38179;52.756;6.906;2023-10-09T02:12:59;31.00;;;23.85;;
52210;SDS011;38179;52.756;6.906;2023-10-09T02:15:31;31.23;;;24.92;;
52210;SDS011;38179;52.756;6.906;2023-10-09T02:20:48;34.70;;;27.23;;
52210;SDS011;38179;52.756;6.906;2023-10-09T02:23:38;35.13;;;25.90;;
52210;SDS011;38179;52.756;6.906;2023-10-09T02:26:11;29.95;;;25.05;;
52210;SDS011;38179;52.756;6.906;2023-10-09T02:29:00;32.38;;;25.05;;
52210;SDS011;38179;52.756;6.906;2023-10-09T02:31:45;36.35;;;26.13;;
52210;SDS011;38179;52.756;6.906;2023-10-09T02:34:19;33.58;;;25.10;;
52210;SDS011;38179;52.756;6.906;2023-10-09T02:36:52;34.28;;;25.40;;
52210;SDS011;38179;52.756;6.906;2023-10-09T02:39:30;37.22;;;26.60;;
52210;SDS011;38179;52.756;6.906;2023-10-09T02:42:02;33.28;;;26.33;;
52210;SDS011;38179;52.756;6.906;2023-10-09T02:44:40;41.28;;;26.10;;
52210;SDS011;38179;52.756;6.906;2023-10-09T02:47:12;33.13;;;26.75;;
52210;SDS011;38179;52.756;6.906;2023-10-09T02:49:46;38.00;;;26.95;;
52210;SDS011;38179;52.756;6.906;2023-10-09T02:52:16;43.47;;;28.02;;
52210;SDS011;38179;52.756;6.906;2023-10-09T02:54:51;36.45;;;27.95;;
52210;SDS011;38179;52.756;6.906;2023-10-09T02:57:27;38.35;;;28.05;;
52210;SDS011;38179;52.756;6.906;2023-10-09T03:00:02;38.38;;;29.38;;
52210;SDS011;38179;52.756;6.906;2023-10-09T03:02:49;42.20;;;28.92;;
52210;SDS011;38179;52.756;6.906;2023-10-09T03:05:16;38.17;;;28.90;;
52210;SDS011;38179;52.756;6.906;2023-10-09T03:07:45;41.50;;;28.63;;
52210;SDS011;38179;52.756;6.906;2023-10-09T03:10:11;39.58;;;29.50;;
52210;SDS011;38179;52.756;6.906;2023-10-09T03:12:37;42.50;;;28.17;;
52210;SDS011;38179;52.756;6.906;2023-10-09T03:15:05;41.10;;;29.52;;
52210;SDS011;38179;52.756;6.906;2023-10-09T03:17:34;42.80;;;29.15;;
52210;SDS011;38179;52.756;6.906;2023-10-09T03:20:05;45.13;;;31.10;;
52210;SDS011;38179;52.756;6.906;2023-10-09T03:22:38;45.75;;;30.63;;
52210;SDS011;38179;52.756;6.906;2023-10-09T03:25:05;41.88;;;30.13;;
52210;SDS011;38179;52.756;6.906;2023-10-09T03:27:38;43.30;;;30.25;;
52210;SDS011;38179;52.756;6.906;2023-10-09T03:30:07;39.70;;;30.98;;
52210;SDS011;38179;52.756;6.906;2023-10-09T03:32:35;44.83;;;30.95;;
52210;SDS011;38179;52.756;6.906;2023-10-09T03:35:01;43.78;;;31.67;;
52210;SDS011;38179;52.756;6.906;2023-10-09T03:37:28;41.53;;;29.23;;
52210;SDS011;38179;52.756;6.906;2023-10-09T03:39:59;40.47;;;30.23;;
52210;SDS011;38179;52.756;6.906;2023-10-09T03:42:25;43.47;;;31.35;;
52210;SDS011;38179;52.756;6.906;2023-10-09T03:44:51;46.13;;;30.88;;
52210;SDS011;38179;52.756;6.906;2023-10-09T03:47:18;45.38;;;31.38;;
52210;SDS011;38179;52.756;6.906;2023-10-09T03:49:48;45.47;;;31.75;;
52210;SDS011;38179;52.756;6.906;2023-10-09T03:52:18;51.92;;;31.42;;
52210;SDS011;38179;52.756;6.906;2023-10-09T03:54:45;45.60;;;32.03;;
52210;SDS011;38179;52.756;6.906;2023-10-09T03:57:14;49.58;;;32.90;;
52210;SDS011;38179;52.756;6.906;2023-10-09T03:59:48;49.47;;;31.85;;
52210;SDS011;38179;52.756;6.906;2023-10-09T04:02:14;49.17;;;33.05;;
52210;SDS011;38179;52.756;6.906;2023-10-09T04:04:41;45.53;;;31.42;;
52210;SDS011;38179;52.756;6.906;2023-10-09T04:07:12;42.47;;;31.50;;
52210;SDS011;38179;52.756;6.906;2023-10-09T04:09:44;48.47;;;31.83;;
52210;SDS011;38179;52.756;6.906;2023-10-09T04:12:13;43.33;;;30.77;;
52210;SDS011;38179;52.756;6.906;2023-10-09T04:14:50;50.70;;;33.20;;
52210;SDS011;38179;52.756;6.906;2023-10-09T04:17:20;42.60;;;30.67;;
52210;SDS011;38179;52.756;6.906;2023-10-09T04:19:59;49.00;;;34.87;;
52210;SDS011;38179;52.756;6.906;2023-10-09T04:22:44;47.90;;;33.40;;
52210;SDS011;38179;52.756;6.906;2023-10-09T04:25:34;49.97;;;33.65;;
52210;SDS011;38179;52.756;6.906;2023-10-09T04:28:10;50.60;;;35.33;;
52210;SDS011;38179;52.756;6.906;2023-10-09T04:30:47;46.53;;;35.63;;
52210;SDS011;38179;52.756;6.906;2023-10-09T04:33:19;51.90;;;34.72;;
52210;SDS011;38179;52.756;6.906;2023-10-09T04:36:06;52.08;;;34.90;;
52210;SDS011;38179;52.756;6.906;2023-10-09T04:38:52;47.47;;;33.83;;
52210;SDS011;38179;52.756;6.906;2023-10-09T04:41:44;43.95;;;33.38;;
52210;SDS011;38179;52.756;6.906;2023-10-09T04:44:10;53.38;;;34.55;;
52210;SDS011;38179;52.756;6.906;2023-10-09T04:46:50;53.50;;;35.30;;
52210;SDS011;38179;52.756;6.906;2023-10-09T04:49:35;55.75;;;36.72;;
52210;SDS011;38179;52.756;6.906;2023-10-09T04:52:27;54.08;;;36.00;;
52210;SDS011;38179;52.756;6.906;2023-10-09T04:54:55;56.00;;;36.38;;
52210;SDS011;38179;52.756;6.906;2023-10-09T04:57:43;50.58;;;35.42;;
52210;SDS011;38179;52.756;6.906;2023-10-09T05:00:17;50.00;;;34.60;;
52210;SDS011;38179;52.756;6.906;2023-10-09T05:02:59;52.38;;;36.22;;
52210;SDS011;38179;52.756;6.906;2023-10-09T05:05:32;53.78;;;37.00;;
52210;SDS011;38179;52.756;6.906;2023-10-09T05:08:17;52.28;;;34.65;;
52210;SDS011;38179;52.756;6.906;2023-10-09T05:11:03;49.03;;;34.92;;
52210;SDS011;38179;52.756;6.906;2023-10-09T05:13:30;52.38;;;36.22;;
52210;SDS011;38179;52.756;6.906;2023-10-09T05:16:06;51.28;;;34.40;;
52210;SDS011;38179;52.756;6.906;2023-10-09T05:18:52;54.40;;;37.00;;
52210;SDS011;38179;52.756;6.906;2023-10-09T05:21:22;57.85;;;38.05;;
52210;SDS011;38179;52.756;6.906;2023-10-09T05:23:58;63.50;;;38.35;;
52210;SDS011;38179;52.756;6.906;2023-10-09T05:26:37;61.33;;;37.40;;
52210;SDS011;38179;52.756;6.906;2023-10-09T05:29:20;61.47;;;38.03;;
52210;SDS011;38179;52.756;6.906;2023-10-09T05:32:01;56.85;;;37.83;;
52210;SDS011;38179;52.756;6.906;2023-10-09T05:34:37;59.25;;;39.78;;
52210;SDS011;38179;52.756;6.906;2023-10-09T05:37:33;53.13;;;36.97;;
52210;SDS011;38179;52.756;6.906;2023-10-09T05:40:00;55.90;;;37.45;;
52210;SDS011;38179;52.756;6.906;2023-10-09T05:45:11;50.88;;;36.80;;
52210;SDS011;38179;52.756;6.906;2023-10-09T05:47:57;55.03;;;37.42;;
52210;SDS011;38179;52.756;6.906;2023-10-09T05:50:24;56.45;;;37.90;;
52210;SDS011;38179;52.756;6.906;2023-10-09T05:52:52;55.20;;;38.00;;
52210;SDS011;38179;52.756;6.906;2023-10-09T05:57:54;58.63;;;37.53;;
52210;SDS011;38179;52.756;6.906;2023-10-09T06:00:24;59.60;;;37.33;;
52210;SDS011;38179;52.756;6.906;2023-10-09T06:03:10;54.17;;;36.90;;
52210;SDS011;38179;52.756;6.906;2023-10-09T06:05:53;64.43;;;39.00;;
52210;SDS011;38179;52.756;6.906;2023-10-09T06:08:23;52.53;;;36.97;;
52210;SDS011;38179;52.756;6.906;2023-10-09T06:11:11;62.50;;;39.17;;
52210;SDS011;38179;52.756;6.906;2023-10-09T06:13:57;54.47;;;36.90;;
52210;SDS011;38179;52.756;6.906;2023-10-09T06:16:38;50.92;;;35.08;;
52210;SDS011;38179;52.756;6.906;2023-10-09T06:19:08;55.55;;;35.83;;
52210;SDS011;38179;52.756;6.906;2023-10-09T06:24:15;53.17;;;38.10;;
52210;SDS011;38179;52.756;6.906;2023-10-09T06:26:42;51.22;;;36.78;;
52210;SDS011;38179;52.756;6.906;2023-10-09T06:29:29;50.92;;;35.88;;
52210;SDS011;38179;52.756;6.906;2023-10-09T06:32:05;46.03;;;34.17;;
52210;SDS011;38179;52.756;6.906;2023-10-09T06:34:41;47.92;;;34.75;;
52210;SDS011;38179;52.756;6.906;2023-10-09T06:37:11;52.28;;;35.88;;
52210;SDS011;38179;52.756;6.906;2023-10-09T06:39:52;51.63;;;35.90;;
52210;SDS011;38179;52.756;6.906;2023-10-09T06:42:27;55.35;;;36.45;;
52210;SDS011;38179;52.756;6.906;2023-10-09T06:44:59;46.22;;;34.10;;
52210;SDS011;38179;52.756;6.906;2023-10-09T06:47:32;49.80;;;35.53;;
52210;SDS011;38179;52.756;6.906;2023-10-09T06:50:22;45.75;;;35.00;;
52210;SDS011;38179;52.756;6.906;2023-10-09T06:52:52;50.75;;;34.30;;
52210;SDS011;38179;52.756;6.906;2023-10-09T06:55:37;45.38;;;32.08;;
52210;SDS011;38179;52.756;6.906;2023-10-09T06:58:19;45.05;;;32.20;;
52210;SDS011;38179;52.756;6.906;2023-10-09T07:00:54;46.67;;;32.83;;
52210;SDS011;38179;52.756;6.906;2023-10-09T07:03:27;40.10;;;31.10;;
52210;SDS011;38179;52.756;6.906;2023-10-09T07:06:05;42.17;;;30.35;;
52210;SDS011;38179;52.756;6.906;2023-10-09T07:08:35;43.42;;;30.77;;
52210;SDS011;38179;52.756;6.906;2023-10-09T07:11:09;41.85;;;31.63;;
52210;SDS011;38179;52.756;6.906;2023-10-09T07:14:08;35.92;;;29.58;;
52210;SDS011;38179;52.756;6.906;2023-10-09T07:16:53;40.42;;;28.95;;
52210;SDS011;38179;52.756;6.906;2023-10-09T07:19:25;34.13;;;28.38;;
52210;SDS011;38179;52.756;6.906;2023-10-09T07:22:07;33.80;;;26.85;;
52210;SDS011;38179;52.756;6.906;2023-10-09T07:24:55;40.15;;;28.45;;
52210;SDS011;38179;52.756;6.906;2023-10-09T07:30:06;36.10;;;28.02;;
52210;SDS011;38179;52.756;6.906;2023-10-09T07:32:53;36.20;;;27.48;;
52210;SDS011;38179;52.756;6.906;2023-10-09T07:35:35;40.03;;;27.45;;
52210;SDS011;38179;52.756;6.906;2023-10-09T07:38:07;36.70;;;26.42;;
52210;SDS011;38179;52.756;6.906;2023-10-09T07:40:34;43.00;;;27.67;;
52210;SDS011;38179;52.756;6.906;2023-10-09T07:43:44;32.83;;;26.35;;
52210;SDS011;38179;52.756;6.906;2023-10-09T07:48:55;33.20;;;26.90;;
52210;SDS011;38179;52.756;6.906;2023-10-09T07:51:23;30.95;;;25.90;;
52210;SDS011;38179;52.756;6.906;2023-10-09T07:53:56;31.67;;;24.90;;
52210;SDS011;38179;52.756;6.906;2023-10-09T07:56:41;34.80;;;26.60;;
52210;SDS011;38179;52.756;6.906;2023-10-09T07:59:12;33.92;;;25.30;;
52210;SDS011;38179;52.756;6.906;2023-10-09T08:01:45;29.20;;;25.05;;
52210;SDS011;38179;52.756;6.906;2023-10-09T08:04:20;33.75;;;25.75;;
52210;SDS011;38179;52.756;6.906;2023-10-09T08:07:06;28.88;;;25.40;;
52210;SDS011;38179;52.756;6.906;2023-10-09T08:09:44;28.40;;;23.90;;
52210;SDS011;38179;52.756;6.906;2023-10-09T08:12:14;31.88;;;24.75;;
52210;SDS011;38179;52.756;6.906;2023-10-09T08:15:03;32.53;;;24.88;;
52210;SDS011;38179;52.756;6.906;2023-10-09T08:17:53;32.92;;;24.75;;
52210;SDS011;38179;52.756;6.906;2023-10-09T08:20:35;28.80;;;23.92;;
52210;SDS011;38179;52.756;6.906;2023-10-09T08:23:16;33.05;;;24.67;;
52210;SDS011;38179;52.756;6.906;2023-10-09T08:26:08;31.63;;;23.35;;
52210;SDS011;38179;52.756;6.906;2023-10-09T08:28:43;27.35;;;23.20;;
52210;SDS011;38179;52.756;6.906;2023-10-09T08:31:14;28.15;;;23.10;;
52210;SDS011;38179;52.756;6.906;2023-10-09T08:34:02;26.30;;;21.40;;
52210;SDS011;38179;52.756;6.906;2023-10-09T08:36:29;26.23;;;22.60;;
52210;SDS011;38179;52.756;6.906;2023-10-09T08:39:04;32.20;;;24.05;;
52210;SDS011;38179;52.756;6.906;2023-10-09T08:41:54;29.52;;;23.38;;
52210;SDS011;38179;52.756;6.906;2023-10-09T08:44:24;26.90;;;23.25;;
52210;SDS011;38179;52.756;6.906;2023-10-09T08:46:53;29.83;;;23.60;;
52210;SDS011;38179;52.756;6.906;2023-10-09T08:49:20;30.48;;;24.15;;
52210;SDS011;38179;52.756;6.906;2023-10-09T08:51:49;25.25;;;22.50;;
52210;SDS011;38179;52.756;6.906;2023-10-09T08:54:18;28.35;;;22.80;;
52210;SDS011;38179;52.756;6.906;2023-10-09T08:56:47;29.83;;;22.25;;
52210;SDS011;38179;52.756;6.906;2023-10-09T08:59:17;32.60;;;24.33;;
52210;SDS011;38179;52.756;6.906;2023-10-09T09:01:47;30.40;;;23.52;;
52210;SDS011;38179;52.756;6.906;2023-10-09T09:04:35;29.33;;;23.25;;
52210;SDS011;38179;52.756;6.906;2023-10-09T09:09:59;26.42;;;21.88;;
52210;SDS011;38179;52.756;6.906;2023-10-09T09:12:45;25.77;;;22.50;;
52210;SDS011;38179;52.756;6.906;2023-10-09T09:15:14;28.25;;;21.67;;
52210;SDS011;38179;52.756;6.906;2023-10-09T09:17:46;25.77;;;22.38;;
52210;SDS011;38179;52.756;6.906;2023-10-09T09:20:21;26.50;;;22.33;;
52210;SDS011;38179;52.756;6.906;2023-10-09T09:22:55;28.70;;;22.73;;
52210;SDS011;38179;52.756;6.906;2023-10-09T09:25:22;32.17;;;21.85;;
52210;SDS011;38179;52.756;6.906;2023-10-09T09:27:56;26.15;;;21.77;;
52210;SDS011;38179;52.756;6.906;2023-10-09T09:30:27;26.38;;;22.20;;
52210;SDS011;38179;52.756;6.906;2023-10-09T09:32:58;25.88;;;21.83;;
52210;SDS011;38179;52.756;6.906;2023-10-09T09:38:41;27.70;;;22.23;;
52210;SDS011;38179;52.756;6.906;2023-10-09T09:41:14;31.13;;;22.20;;
52210;SDS011;38179;52.756;6.906;2023-10-09T09:46:37;24.63;;;21.65;;
52210;SDS011;38179;52.756;6.906;2023-10-09T09:49:05;25.88;;;22.20;;
52210;SDS011;38179;52.756;6.906;2023-10-09T09:51:42;25.52;;;21.67;;
52210;SDS011;38179;52.756;6.906;2023-10-09T09:54:14;25.52;;;21.48;;
52210;SDS011;38179;52.756;6.906;2023-10-09T09:56:44;26.58;;;22.55;;
52210;SDS011;38179;52.756;6.906;2023-10-09T09:59:17;31.08;;;22.83;;
52210;SDS011;38179;52.756;6.906;2023-10-09T10:01:49;30.63;;;23.13;;
52210;SDS011;38179;52.756;6.906;2023-10-09T10:04:23;26.88;;;22.58;;
52210;SDS011;38179;52.756;6.906;2023-10-09T10:06:53;28.88;;;23.10;;
52210;SDS011;38179;52.756;6.906;2023-10-09T10:09:36;27.83;;;22.02;;
52210;SDS011;38179;52.756;6.906;2023-10-09T10:12:04;29.42;;;22.38;;
52210;SDS011;38179;52.756;6.906;2023-10-09T10:17:24;30.17;;;22.45;;
52210;SDS011;38179;52.756;6.906;2023-10-09T10:20:26;32.05;;;22.35;;
52210;SDS011;38179;52.756;6.906;2023-10-09T10:22:45;27.10;;;22.48;;
52210;SDS011;38179;52.756;6.906;2023-10-09T10:28:16;28.98;;;21.27;;
52210;SDS011;38179;52.756;6.906;2023-10-09T10:31:02;30.70;;;22.70;;
52210;SDS011;38179;52.756;6.906;2023-10-09T10:34:03;27.08;;;21.65;;
52210;SDS011;38179;52.756;6.906;2023-10-09T10:36:18;29.73;;;21.95;;
52210;SDS011;38179;52.756;6.906;2023-10-09T10:38:59;31.10;;;23.35;;
52210;SDS011;38179;52.756;6.906;2023-10-09T10:41:53;28.13;;;22.40;;
52210;SDS011;38179;52.756;6.906;2023-10-09T10:44:26;32.15;;;22.63;;
52210;SDS011;38179;52.756;6.906;2023-10-09T10:47:06;31.55;;;23.13;;
52210;SDS011;38179;52.756;6.906;2023-10-09T10:49:49;32.60;;;22.67;;
52210;SDS011;38179;52.756;6.906;2023-10-09T10:52:20;27.20;;;22.90;;
52210;SDS011;38179;52.756;6.906;2023-10-09T10:54:47;25.88;;;21.38;;
52210;SDS011;38179;52.756;6.906;2023-10-09T10:57:35;26.67;;;22.25;;
52210;SDS011;38179;52.756;6.906;2023-10-09T11:00:21;29.55;;;21.33;;
52210;SDS011;38179;52.756;6.906;2023-10-09T11:03:10;30.08;;;22.83;;
52210;SDS011;38179;52.756;6.906;2023-10-09T11:05:44;29.98;;;21.27;;
52210;SDS011;38179;52.756;6.906;2023-10-09T11:08:23;23.60;;;20.80;;
52210;SDS011;38179;52.756;6.906;2023-10-09T11:11:17;24.98;;;20.85;;
52210;SDS011;38179;52.756;6.906;2023-10-09T11:13:44;28.73;;;21.23;;
52210;SDS011;38179;52.756;6.906;2023-10-09T11:16:24;24.88;;;20.67;;
52210;SDS011;38179;52.756;6.906;2023-10-09T11:19:00;28.67;;;21.67;;
52210;SDS011;38179;52.756;6.906;2023-10-09T11:21:37;25.45;;;21.92;;
52210;SDS011;38179;52.756;6.906;2023-10-09T11:24:08;32.97;;;21.10;;
52210;SDS011;38179;52.756;6.906;2023-10-09T11:26:49;24.95;;;20.40;;
52210;SDS011;38179;52.756;6.906;2023-10-09T11:29:23;23.58;;;19.80;;
52210;SDS011;38179;52.756;6.906;2023-10-09T11:32:02;24.40;;;19.75;;
52210;SDS011;38179;52.756;6.906;2023-10-09T11:34:30;30.35;;;21.27;;
52210;SDS011;38179;52.756;6.906;2023-10-09T11:37:02;27.95;;;20.65;;
52210;SDS011;38179;52.756;6.906;2023-10-09T11:39:44;25.60;;;20.20;;
52210;SDS011;38179;52.756;6.906;2023-10-09T11:42:19;24.73;;;19.50;;
52210;SDS011;38179;52.756;6.906;2023-10-09T11:45:07;25.70;;;20.27;;
52210;SDS011;38179;52.756;6.906;2023-10-09T11:47:48;25.75;;;20.30;;
52210;SDS011;38179;52.756;6.906;2023-10-09T11:53:39;23.40;;;20.23;;
52210;SDS011;38179;52.756;6.906;2023-10-09T11:56:08;28.58;;;20.83;;
52210;SDS011;38179;52.756;6.906;2023-10-09T11:58:39;22.38;;;20.00;;
52210;SDS011;38179;52.756;6.906;2023-10-09T12:01:12;20.98;;;18.98;;
52210;SDS011;38179;52.756;6.906;2023-10-09T12:03:49;22.88;;;19.45;;
52210;SDS011;38179;52.756;6.906;2023-10-09T12:06:17;27.15;;;20.05;;
52210;SDS011;38179;52.756;6.906;2023-10-09T12:08:48;26.25;;;19.27;;
52210;SDS011;38179;52.756;6.906;2023-10-09T12:11:14;22.30;;;20.05;;
52210;SDS011;38179;52.756;6.906;2023-10-09T12:13:50;23.05;;;18.63;;
52210;SDS011;38179;52.756;6.906;2023-10-09T12:16:26;21.42;;;19.17;;
52210;SDS011;38179;52.756;6.906;2023-10-09T12:18:58;21.23;;;18.73;;
52210;SDS011;38179;52.756;6.906;2023-10-09T12:21:25;22.48;;;18.60;;
52210;SDS011;38179;52.756;6.906;2023-10-09T12:23:53;21.65;;;19.25;;
52210;SDS011;38179;52.756;6.906;2023-10-09T12:26:22;22.80;;;18.45;;
52210;SDS011;38179;52.756;6.906;2023-10-09T12:28:49;21.08;;;18.23;;
52210;SDS011;38179;52.756;6.906;2023-10-09T12:31:15;20.58;;;17.50;;
52210;SDS011;38179;52.756;6.906;2023-10-09T12:33:45;21.50;;;17.95;;
52210;SDS011;38179;52.756;6.906;2023-10-09T12:36:13;22.95;;;18.10;;
52210;SDS011;38179;52.756;6.906;2023-10-09T12:38:45;20.73;;;17.48;;
52210;SDS011;38179;52.756;6.906;2023-10-09T12:41:24;19.88;;;17.42;;
52210;SDS011;38179;52.756;6.906;2023-10-09T12:43:58;20.23;;;17.48;;
52210;SDS011;38179;52.756;6.906;2023-10-09T12:46:25;19.88;;;17.73;;
52210;SDS011;38179;52.756;6.906;2023-10-09T12:48:51;20.02;;;18.02;;
52210;SDS011;38179;52.756;6.906;2023-10-09T12:51:19;19.67;;;17.57;;
52210;SDS011;38179;52.756;6.906;2023-10-09T12:53:50;22.25;;;17.33;;
52210;SDS011;38179;52.756;6.906;2023-10-09T12:56:25;20.88;;;17.65;;
52210;SDS011;38179;52.756;6.906;2023-10-09T12:59:01;19.23;;;17.33;;
52210;SDS011;38179;52.756;6.906;2023-10-09T13:01:30;19.77;;;16.65;;
52210;SDS011;38179;52.756;6.906;2023-10-09T13:04:11;19.85;;;17.15;;
52210;SDS011;38179;52.756;6.906;2023-10-09T13:06:49;20.83;;;17.10;;
52210;SDS011;38179;52.756;6.906;2023-10-09T13:09:19;18.70;;;16.83;;
52210;SDS011;38179;52.756;6.906;2023-10-09T13:12:00;19.88;;;17.88;;
52210;SDS011;38179;52.756;6.906;2023-10-09T13:14:27;21.20;;;17.00;;
52210;SDS011;38179;52.756;6.906;2023-10-09T13:16:53;20.05;;;17.58;;
52210;SDS011;38179;52.756;6.906;2023-10-09T13:19:19;18.08;;;16.02;;
52210;SDS011;38179;52.756;6.906;2023-10-09T13:21:49;19.23;;;17.15;;
52210;SDS011;38179;52.756;6.906;2023-10-09T13:24:15;19.45;;;17.52;;
52210;SDS011;38179;52.756;6.906;2023-10-09T13:26:44;23.20;;;17.10;;
52210;SDS011;38179;52.756;6.906;2023-10-09T13:29:11;20.95;;;17.52;;
52210;SDS011;38179;52.756;6.906;2023-10-09T13:31:39;21.70;;;16.65;;
52210;SDS011;38179;52.756;6.906;2023-10-09T13:34:12;20.92;;;16.25;;
52210;SDS011;38179;52.756;6.906;2023-10-09T13:36:40;21.40;;;17.42;;
52210;SDS011;38179;52.756;6.906;2023-10-09T13:39:15;19.48;;;17.52;;
52210;SDS011;38179;52.756;6.906;2023-10-09T13:41:53;21.25;;;16.50;;
52210;SDS011;38179;52.756;6.906;2023-10-09T13:44:24;18.55;;;16.65;;
52210;SDS011;38179;52.756;6.906;2023-10-09T13:46:52;18.38;;;16.52;;
52210;SDS011;38179;52.756;6.906;2023-10-09T13:49:22;20.30;;;17.80;;
52210;SDS011;38179;52.756;6.906;2023-10-09T13:51:51;24.13;;;20.58;;
52210;SDS011;38179;52.756;6.906;2023-10-09T13:54:21;17.65;;;16.05;;
52210;SDS011;38179;52.756;6.906;2023-10-09T13:57:08;16.83;;;15.32;;
52210;SDS011;38179;52.756;6.906;2023-10-09T13:59:36;17.52;;;15.73;;
52210;SDS011;38179;52.756;6.906;2023-10-09T14:02:07;20.05;;;16.77;;
52210;SDS011;38179;52.756;6.906;2023-10-09T14:04:42;18.52;;;15.68;;
52210;SDS011;38179;52.756;6.906;2023-10-09T14:07:09;16.73;;;15.20;;
52210;SDS011;38179;52.756;6.906;2023-10-09T14:09:35;17.23;;;15.63;;
52210;SDS011;38179;52.756;6.906;2023-10-09T14:12:10;17.55;;;15.85;;
52210;SDS011;38179;52.756;6.906;2023-10-09T14:14:43;16.63;;;14.85;;
52210;SDS011;38179;52.756;6.906;2023-10-09T14:17:19;16.90;;;15.45;;
52210;SDS011;38179;52.756;6.906;2023-10-09T14:19:51;16.58;;;14.88;;
52210;SDS011;38179;52.756;6.906;2023-10-09T14:22:18;17.02;;;15.40;;
52210;SDS011;38179;52.756;6.906;2023-10-09T14:24:47;16.40;;;14.90;;
52210;SDS011;38179;52.756;6.906;2023-10-09T14:27:20;18.27;;;16.48;;
52210;SDS011;38179;52.756;6.906;2023-10-09T14:29:51;17.45;;;15.90;;
52210;SDS011;38179;52.756;6.906;2023-10-09T14:32:21;18.52;;;16.60;;
52210;SDS011;38179;52.756;6.906;2023-10-09T14:34:54;17.63;;;15.90;;
52210;SDS011;38179;52.756;6.906;2023-10-09T14:37:26;17.60;;;15.95;;
52210;SDS011;38179;52.756;6.906;2023-10-09T14:39:53;18.00;;;16.27;;
52210;SDS011;38179;52.756;6.906;2023-10-09T14:42:20;17.85;;;15.95;;
52210;SDS011;38179;52.756;6.906;2023-10-09T14:47:15;17.15;;;15.43;;
52210;SDS011;38179;52.756;6.906;2023-10-09T14:49:47;18.38;;;15.88;;
52210;SDS011;38179;52.756;6.906;2023-10-09T14:52:14;17.23;;;15.40;;
52210;SDS011;38179;52.756;6.906;2023-10-09T14:54:45;18.70;;;16.05;;
52210;SDS011;38179;52.756;6.906;2023-10-09T14:57:12;21.08;;;15.70;;
52210;SDS011;38179;52.756;6.906;2023-10-09T14:59:38;17.48;;;15.80;;
52210;SDS011;38179;52.756;6.906;2023-10-09T15:02:05;18.05;;;15.90;;
52210;SDS011;38179;52.756;6.906;2023-10-09T15:04:36;19.30;;;15.80;;
52210;SDS011;38179;52.756;6.906;2023-10-09T15:07:03;20.50;;;16.50;;
52210;SDS011;38179;52.756;6.906;2023-10-09T15:09:35;18.05;;;16.35;;
52210;SDS011;38179;52.756;6.906;2023-10-09T15:12:02;22.17;;;16.88;;
52210;SDS011;38179;52.756;6.906;2023-10-09T15:14:31;17.42;;;15.93;;
52210;SDS011;38179;52.756;6.906;2023-10-09T15:16:57;18.48;;;16.38;;
52210;SDS011;38179;52.756;6.906;2023-10-09T15:19:23;18.20;;;16.05;;
52210;SDS011;38179;52.756;6.906;2023-10-09T15:21:55;17.80;;;16.00;;
52210;SDS011;38179;52.756;6.906;2023-10-09T15:24:21;17.90;;;15.98;;
52210;SDS011;38179;52.756;6.906;2023-10-09T15:26:49;18.33;;;16.20;;
52210;SDS011;38179;52.756;6.906;2023-10-09T15:29:23;17.50;;;15.68;;
52210;SDS011;38179;52.756;6.906;2023-10-09T15:31:59;17.58;;;15.82;;
52210;SDS011;38179;52.756;6.906;2023-10-09T15:34:40;17.45;;;15.85;;
52210;SDS011;38179;52.756;6.906;2023-10-09T15:37:07;17.75;;;15.60;;
52210;SDS011;38179;52.756;6.906;2023-10-09T15:39:53;16.92;;;15.43;;
52210;SDS011;38179;52.756;6.906;2023-10-09T15:42:19;17.17;;;15.57;;
52210;SDS011;38179;52.756;6.906;2023-10-09T15:44:46;16.48;;;15.02;;
52210;SDS011;38179;52.756;6.906;2023-10-09T15:47:13;17.95;;;16.17;;
52210;SDS011;38179;52.756;6.906;2023-10-09T15:49:55;16.85;;;15.05;;